Pilot Boat Dalmar I — HKOZ7 — position and weather

sailwx.info

Track history (hours):
 
Tides and Currents Weather Stations Pressure Air Temp Water Temp Dewpoint Dewpoint Depression Visibility Wind Speed Wind Dir Waves Ship Positions

Pilot Boat Dalmar I

Last reported at 2018-Jun-20 10:10 UTC. Time now 2018-Jun-22 15:00 UTC.
Position N 10°24' W 075°33'.

Length 10 m.

Type: Pilot. MMSI: 730151274.

Date/timePositionNaut miles runAvg speedWind from/ knotsBaromVisibWave heightAir tempDewpointWater temp
2018-Jun-20 10:10N 10°24' W 075°33'4 0.6
2018-Jun-20 03:27N 10°20' W 075°34'3 0.7
2018-Jun-19 23:24N 10°22' W 075°32'3 8.0
2018-Jun-19 23:00N 10°19' W 075°33'3 1.6
2018-Jun-19 21:17N 10°21' W 075°31'1 2.5
2018-Jun-19 20:57N 10°20' W 075°31'0 0.0
2018-Jun-19 20:27N 10°20' W 075°31'0 0.0
2018-Jun-19 20:00N 10°20' W 075°31'0 0.8
2018-Jun-19 19:30N 10°20' W 075°31'1 1.9
2018-Jun-19 18:54N 10°21' W 075°31'3 6.8
2018-Jun-19 18:30N 10°18' W 075°30'1 1.5
2018-Jun-19 17:56N 10°19' W 075°31'2 1.0
2018-Jun-19 15:38N 10°20' W 075°33'2 1.4
2018-Jun-19 14:17N 10°19' W 075°35'0 0.0
2018-Jun-19 14:00N 10°19' W 075°35'4 1.8
2018-Jun-19 11:53N 10°20' W 075°31'1 2.9
2018-Jun-19 11:30N 10°18' W 075°31'0 0.0
2018-Jun-19 10:59N 10°18' W 075°31'0 0.0
2018-Jun-19 10:29N 10°18' W 075°31'2 0.2
2018-Jun-19 00:58N 10°19' W 075°32'0 0.1
2018-Jun-19 00:29N 10°19' W 075°32'1 0.6
2018-Jun-18 22:11N 10°21' W 075°32'1 2.6
2018-Jun-18 21:43N 10°20' W 075°33'5 0.2
2018-Jun-17 21:19N 10°25' W 075°32'4 7.1
2018-Jun-17 20:48N 10°21' W 075°32'3 8.1
2018-Jun-17 20:25N 10°19' W 075°35'0 0.0
2018-Jun-17 19:55N 10°19' W 075°35'0 0.0
2018-Jun-17 19:28N 10°19' W 075°35'0 0.0
2018-Jun-17 18:58N 10°19' W 075°35'0 0.0
2018-Jun-17 18:29N 10°19' W 075°35'  
2018-Jun-13 00:12N 10°21' W 075°32'1 6.8
2018-Jun-13 00:00N 10°19' W 075°32'0 0.8
2018-Jun-12 23:25N 10°19' W 075°32'2 3.7
2018-Jun-12 22:53N 10°17' W 075°32'3 0.7
2018-Jun-12 18:52N 10°20' W 075°33'4 0.4
2018-Jun-12 09:47N 10°24' W 075°33'517.3
2018-Jun-12 09:29N 10°19' W 075°34'1 0.1
2018-Jun-11 21:36N 10°20' W 075°33'1 3.9
2018-Jun-11 21:16N 10°19' W 075°34'2 6.0
2018-Jun-11 21:01N 10°20' W 075°33'0 0.2
2018-Jun-11 19:20N 10°20' W 075°32'1 1.0
2018-Jun-11 18:36N 10°20' W 075°33'0 4.0
2018-Jun-11 18:30N 10°20' W 075°33'5 2.8
2018-Jun-11 16:42N 10°25' W 075°32'2 6.7
2018-Jun-11 16:26N 10°23' W 075°32'4 9.3
2018-Jun-11 15:59N 10°19' W 075°31'  
Track history (hours):
 
Tides and Currents Weather Stations Pressure Air Temp Water Temp Dewpoint Dewpoint Depression Visibility Wind Speed Wind Dir Waves Ship Positions

Pilot Boat Dalmar I

Last reported at 2018-Jun-20 10:10 UTC. Time now 2018-Jun-22 15:00 UTC.
Position N 10°24' W 075°33'.

Length 10 m.

Type: Pilot. MMSI: 730151274.

Date/timePositionNaut miles runAvg speedWind from/ knotsBaromVisibWave heightAir tempDewpointWater temp
2018-Jun-20 10:10N 10°24' W 075°33'4 0.6
2018-Jun-20 03:27N 10°20' W 075°34'3 0.7
2018-Jun-19 23:24N 10°22' W 075°32'3 8.0
2018-Jun-19 23:00N 10°19' W 075°33'3 1.6
2018-Jun-19 21:17N 10°21' W 075°31'1 2.5
2018-Jun-19 20:57N 10°20' W 075°31'0 0.0
2018-Jun-19 20:27N 10°20' W 075°31'0 0.0
2018-Jun-19 20:00N 10°20' W 075°31'0 0.8
2018-Jun-19 19:30N 10°20' W 075°31'1 1.9
2018-Jun-19 18:54N 10°21' W 075°31'3 6.8
2018-Jun-19 18:30N 10°18' W 075°30'1 1.5
2018-Jun-19 17:56N 10°19' W 075°31'2 1.0
2018-Jun-19 15:38N 10°20' W 075°33'2 1.4
2018-Jun-19 14:17N 10°19' W 075°35'0 0.0
2018-Jun-19 14:00N 10°19' W 075°35'4 1.8
2018-Jun-19 11:53N 10°20' W 075°31'1 2.9
2018-Jun-19 11:30N 10°18' W 075°31'0 0.0
2018-Jun-19 10:59N 10°18' W 075°31'0 0.0
2018-Jun-19 10:29N 10°18' W 075°31'2 0.2
2018-Jun-19 00:58N 10°19' W 075°32'0 0.1
2018-Jun-19 00:29N 10°19' W 075°32'1 0.6
2018-Jun-18 22:11N 10°21' W 075°32'1 2.6
2018-Jun-18 21:43N 10°20' W 075°33'5 0.2
2018-Jun-17 21:19N 10°25' W 075°32'4 7.1
2018-Jun-17 20:48N 10°21' W 075°32'3 8.1
2018-Jun-17 20:25N 10°19' W 075°35'0 0.0
2018-Jun-17 19:55N 10°19' W 075°35'0 0.0
2018-Jun-17 19:28N 10°19' W 075°35'0 0.0
2018-Jun-17 18:58N 10°19' W 075°35'0 0.0
2018-Jun-17 18:29N 10°19' W 075°35'  
2018-Jun-13 00:12N 10°21' W 075°32'1 6.8
2018-Jun-13 00:00N 10°19' W 075°32'0 0.8
2018-Jun-12 23:25N 10°19' W 075°32'2 3.7
2018-Jun-12 22:53N 10°17' W 075°32'3 0.7
2018-Jun-12 18:52N 10°20' W 075°33'4 0.4
2018-Jun-12 09:47N 10°24' W 075°33'517.3
2018-Jun-12 09:29N 10°19' W 075°34'1 0.1
2018-Jun-11 21:36N 10°20' W 075°33'1 3.9
2018-Jun-11 21:16N 10°19' W 075°34'2 6.0
2018-Jun-11 21:01N 10°20' W 075°33'0 0.2
2018-Jun-11 19:20N 10°20' W 075°32'1 1.0
2018-Jun-11 18:36N 10°20' W 075°33'0 4.0
2018-Jun-11 18:30N 10°20' W 075°33'5 2.8
2018-Jun-11 16:42N 10°25' W 075°32'2 6.7
2018-Jun-11 16:26N 10°23' W 075°32'4 9.3
2018-Jun-11 15:59N 10°19' W 075°31'  

Dump ship's entire track history